• Join FlightAware (Why Join?)
  • Login
  • US Flag 
03:11AM EDT


 

Airport Tracker/Info


-or-


 

Live Flight TrackerFlight Track Log ✈ BJS542 ✈ 11-Aug-2013 ✈ KDEN - KJAC

Flight Track Log - Related Links

Times and Time Zones

All times are in EDT time to prevent confusion due to time zone crossing. See the BJS542 flight status page for this flight to view local times or setup timezone preferences in your user account.

Time Position Orientation Groundspeed Altitude Reporting Facility
EDT Latitude Longitude Course Direction KTS MPH feet Rate Location/Type
01:27PM 39.9167 -104.7000 323° Northwest 204 235 7,500  Level Denver TRACON
01:28PM 39.9833 -104.7167 349° North 269 310 9,700 2,460 Climbing Denver TRACON
01:29PM 40.0642 -104.7394 348° North 291 335 12,400 2,640 Climbing Denver Center
01:30PM 40.1617 -104.7850 340° North 342 394 15,300 2,580 Climbing Denver Center
01:31PM 40.2581 -104.8308 340° North 370 426 17,800 2,700 Climbing Denver Center
01:32PM 40.3647 -104.8803 341° North 375 432 21,000 2,640 Climbing Denver Center
01:33PM 40.4655 -104.7655 323° Northwest  Level FlightAware Approximate
01:34PM 40.4553 -104.9247 340° North 348 400 23,300  Level Denver Center
01:35PM 40.5572 -104.9731 340° North 363 418 24,900 1,440 Climbing Denver Center
01:36PM 40.6639 -105.0250 340° North 409 471 26,300 1,560 Climbing Denver Center
01:37PM 40.7725 -105.0758 340° North 409 471 28,200 1,800 Climbing Denver Center
01:38PM 40.8631 -105.1786 319° Northwest 425 489 30,100 1,800 Climbing Denver Center
01:39PM 40.9544 -105.2808 320° Northwest 430 495 32,000 1,980 Climbing Denver Center
01:40PM 41.0744 -105.3742 330° Northwest 440 506 34,200 1,740 Climbing Denver Center
01:41PM 41.1800 -105.4397 335° Northwest 439 505 35,700 1,380 Climbing Denver Center
01:42PM 41.3053 -105.5189 335° Northwest 446 513 37,100 1,080 Climbing Denver Center
01:43PM 41.4122 -105.5867 335° Northwest 445 512 38,000 420 Climbing Denver Center
01:44PM 41.5028 -105.7139 314° West 427 491 38,000  Level Denver Center
01:45PM 41.5700 -105.8350 307° West 422 486 38,000  Level Denver Center
01:46PM 41.6461 -105.9781 305° West 422 486 38,000  Level Denver Center
01:47PM 41.7106 -106.0969 306° West 416 479 38,000  Level Denver Center
01:48PM 41.7861 -106.2364 306° West 414 476 38,000  Level Denver Center
01:49PM 41.8508 -106.3600 305° West 420 483 38,000  Level Denver Center
01:50PM 41.9178 -106.4869 305° West 431 496 38,000  Level Denver Center
01:51PM 41.9997 -106.6394 306° West 434 499 38,000  Level Denver Center
01:52PM 42.0664 -106.7653 306° West 433 498 38,000  Level Denver Center
01:53PM 42.1428 -106.9092 306° West 426 490 38,000  Level Denver Center
01:54PM 42.2047 -107.0308 305° West 417 480 38,000  Level Denver Center
01:55PM 42.2808 -107.1761 305° West 423 487 38,000  Level Denver Center
01:56PM 42.3436 -107.2992 305° West 419 482 38,000  Level Denver Center
01:57PM 42.3978 -107.4053 305° West 421 484 38,000  Level Salt Lake Center
01:58PM 42.4744 -107.5531 305° West 427 491 38,000  Level Salt Lake Center
01:59PM 42.5378 -107.6772 305° West 424 488 38,000  Level Salt Lake Center
02:00PM 42.6014 -107.8031 305° West 423 487 38,000  Level Salt Lake Center
02:01PM 42.6756 -107.9511 304° West 424 488 38,000  Level Salt Lake Center
02:02PM 42.7406 -108.0808 304° West 427 491 38,000  Level Salt Lake Center
02:03PM 42.8156 -108.2317 304° West 431 496 38,000  Level Salt Lake Center
02:04PM 42.8789 -108.3592 304° West 428 493 38,000  Level Salt Lake Center
02:05PM 42.9533 -108.5092 304° West 429 494 38,000  Level Salt Lake Center
02:06PM 43.0000 -108.6494 294° West 429 494 38,000  Level Salt Lake Center
02:07PM 43.0411 -108.8222 288° West 430 495 38,000 -240 Level Salt Lake Center
02:08PM 43.0769 -108.9706 288° West 430 495 37,500 -1,140 Descending Salt Lake Center
02:09PM 43.1211 -109.1439 289° West 433 498 35,700 -2,580 Descending Salt Lake Center
02:11PM 43.1600 -109.2978 289° West 443 510 32,200 -3,840 Descending Salt Lake Center
02:12PM 43.2108 -109.4769 291° West 451 519 27,800 -4,020 Descending Salt Lake Center
02:13PM 43.2575 -109.6258 293° West 448 516 24,000 -3,780 Descending Salt Lake Center
02:14PM 43.3006 -109.7975 289° West 433 498 20,000 -2,880 Descending Salt Lake Center
02:15PM 43.3606 -109.9161 305° West 401 461 18,100 -1,020 Descending Salt Lake Center
02:16PM 43.3992 -110.0497 292° West 350 403 18,000 -60 Descending Salt Lake Center
02:17PM 43.4514 -110.1447 307° West 340 391 18,000  Level Salt Lake Center
02:18PM 43.5053 -110.2503 305° West 336 387 18,000  Level Salt Lake Center
02:19PM 43.5653 -110.3794 303° West 334 384 18,000 -420 Level Salt Lake Center
02:20PM 43.6392 -110.4564 323° Northwest 339 390 17,200 -1,380 Descending Salt Lake Center
02:21PM 43.7222 -110.4775 350° North 335 386 15,200 -1,620 Descending Salt Lake Center
02:22PM 43.8053 -110.4672 North 318 366 13,900 -1,380 Descending Salt Lake Center
02:23PM 43.8197 -110.5608 282° West 274 315 12,400 -1,860 Descending Salt Lake Center
02:24PM 43.7678 -110.6594 234° Southwest 269 310 10,100 -1,680 Descending Salt Lake Center
02:25PM 43.7133 -110.6858 199° South 230 265 9,000 -1,140 Descending Salt Lake Center
02:26PM 43.6733 -110.7056 200° South 187 215 7,800 -1,020 Descending Salt Lake Center
02:27PM 43.6383 -110.7228 200° South 156 180 7,000 -780 Descending Salt Lake Center